Time;durP1;ratioP1;P1;durP2;ratioP2;P2;SDS_P1;SDS_P2;PMS_P1;PMS_P2;Temp;Humidity;BMP_temperature;BMP_pressure;BME280_temperature;BME280_humidity;BME280_pressure;Samples;Min_cycle;Max_cycle;Signal;HPM_P1;HPM_P2
2023/03/12 00:01:12;;;;;;;4.37;2.30;;;;;;;2.04;69.70;101075.66;5025304;28;20036;-83
2023/03/12 00:03:39;;;;;;;4.57;2.20;;;;;;;2.06;69.81;101073.94;5030371;28;20029;-85
2023/03/12 00:06:04;;;;;;;5.23;2.57;;;;;;;2.03;69.05;101077.34;5013250;28;20532;-85
2023/03/12 00:08:30;;;;;;;6.47;2.50;;;;;;;2.04;68.67;101078.22;5028846;28;20104;-85
2023/03/12 00:10:55;;;;;;;5.80;2.37;;;;;;;2.03;69.64;101068.78;5027820;28;20052;-85
2023/03/12 00:13:20;;;;;;;3.87;2.20;;;;;;;2.03;70.03;101066.22;5029253;28;20041;-84
2023/03/12 00:15:45;;;;;;;5.97;2.50;;;;;;;2.04;70.30;101062.81;5029210;28;20036;-90
2023/03/12 00:18:11;;;;;;;6.60;2.27;;;;;;;2.05;70.16;101060.25;5029026;28;20034;-85
2023/03/12 00:20:36;;;;;;;3.33;1.90;;;;;;;2.06;70.39;101061.09;5028209;28;20061;-86
2023/03/12 00:23:01;;;;;;;4.87;2.33;;;;;;;2.05;69.97;101059.41;5029620;28;20079;-82
2023/03/12 00:25:27;;;;;;;4.40;2.20;;;;;;;2.05;69.54;101055.13;5030188;28;20071;-88
2023/03/12 00:27:52;;;;;;;4.47;2.30;;;;;;;2.06;69.96;101054.28;5030196;28;20051;-85
2023/03/12 00:30:17;;;;;;;4.37;2.27;;;;;;;2.06;70.12;101049.16;5025772;28;20511;-88
2023/03/12 00:32:43;;;;;;;3.97;2.10;;;;;;;2.07;70.30;101050.00;5030403;28;20029;-88
2023/03/12 00:35:09;;;;;;;4.00;2.20;;;;;;;2.03;70.75;101035.44;5026626;28;20029;-84
2023/03/12 00:37:37;;;;;;;5.23;2.40;;;;;;;2.05;70.55;101032.03;5009874;28;20036;-84
2023/03/12 00:40:04;;;;;;;3.93;2.13;;;;;;;2.05;70.55;101034.59;5013904;28;20396;-83
2023/03/12 00:42:30;;;;;;;4.13;2.10;;;;;;;2.05;71.15;101032.03;5028731;28;20025;-84
2023/03/12 00:44:56;;;;;;;4.13;2.40;;;;;;;2.04;71.02;101021.75;5029189;28;20064;-85
2023/03/12 00:47:21;;;;;;;4.20;2.07;;;;;;;2.04;71.06;101024.31;5026551;28;20094;-84
2023/03/12 00:49:46;;;;;;;4.83;2.30;;;;;;;2.03;71.21;101008.06;5028386;28;20037;-85
2023/03/12 00:52:12;;;;;;;4.50;2.30;;;;;;;2.04;70.60;101026.88;5013858;28;20201;-81
2023/03/12 00:54:37;;;;;;;3.73;2.10;;;;;;;2.03;70.98;101022.59;5026409;28;20107;-79
2023/03/12 00:57:03;;;;;;;4.77;2.30;;;;;;;2.01;69.78;101026.84;5031851;28;20029;-85
2023/03/12 00:59:28;;;;;;;4.80;2.37;;;;;;;2.03;69.61;101025.16;5032709;28;20152;-81
2023/03/12 01:01:53;;;;;;;5.97;2.57;;;;;;;2.05;70.50;101011.50;5033341;28;20029;-81
2023/03/12 01:04:19;;;;;;;6.07;2.30;;;;;;;2.03;70.00;101007.19;5016243;28;20120;-81
2023/03/12 01:06:44;;;;;;;5.70;2.23;;;;;;;2.03;70.15;101004.63;5031722;28;20220;-81
2023/03/12 01:09:09;;;;;;;6.20;2.23;;;;;;;2.02;69.63;101008.88;5032749;28;20017;-81
2023/03/12 01:11:36;;;;;;;5.27;2.17;;;;;;;2.03;70.19;101009.78;5033852;28;20076;-81
2023/03/12 01:14:03;;;;;;;4.27;2.00;;;;;;;2.03;70.34;101013.19;5034689;28;20461;-81
2023/03/12 01:16:29;;;;;;;6.10;2.43;;;;;;;2.05;70.25;101006.38;5033036;28;20033;-81
2023/03/12 01:18:55;;;;;;;5.43;2.07;;;;;;;2.05;70.79;100996.09;5030937;28;20031;-81
2023/03/12 01:21:21;;;;;;;4.47;2.20;;;;;;;2.05;70.79;100992.69;5034776;28;20057;-81
2023/03/12 01:23:46;;;;;;;3.40;2.07;;;;;;;2.07;70.91;100996.09;5034008;28;20031;-81
2023/03/12 01:26:11;;;;;;;4.30;2.33;;;;;;;2.07;70.95;100990.97;5033310;28;20443;-81
2023/03/12 01:28:37;;;;;;;4.00;2.10;;;;;;;2.07;70.96;100993.53;5029780;28;20029;-81
2023/03/12 01:31:07;;;;;;;3.73;2.13;;;;;;;2.04;70.63;100981.53;5016300;28;20049;-81
2023/03/12 01:33:32;;;;;;;4.30;2.30;;;;;;;2.07;70.89;100984.16;5033697;28;20037;-81
2023/03/12 01:35:57;;;;;;;3.60;2.13;;;;;;;2.06;71.05;100987.56;5033586;28;20059;-81
2023/03/12 01:38:23;;;;;;;4.97;2.30;;;;;;;2.07;71.44;100991.84;5031152;28;20456;-81
2023/03/12 01:40:48;;;;;;;4.13;2.20;;;;;;;2.09;71.47;100999.56;5016049;28;20026;-81
2023/03/12 01:43:31;;;;;;;3.43;2.23;;;;;;;2.08;71.58;101005.53;5033024;28;20036;-81
2023/03/12 01:46:23;;;;;;;4.50;2.40;;;;;;;2.09;71.37;100997.88;5032692;28;20079;-81
2023/03/12 01:49:00;;;;;;;4.22;2.45;;;;;;;2.08;71.47;100987.56;5024190;28;20033;-81
2023/03/12 01:51:30;;;;;;;5.60;2.30;;;;;;;2.07;71.72;100978.16;5031794;28;20029;-81
2023/03/12 01:53:58;;;;;;;4.87;2.27;;;;;;;2.05;70.99;100965.31;5032200;28;20456;-81
2023/03/12 01:56:26;;;;;;;5.30;2.33;;;;;;;2.06;71.65;100955.88;5015735;28;20418;-81
2023/03/12 01:58:56;;;;;;;4.40;2.30;;;;;;;2.05;72.00;100944.78;5027430;28;20026;-81
2023/03/12 02:01:22;;;;;;;4.53;2.70;;;;;;;2.06;72.09;100949.06;5029047;28;20034;-81
2023/03/12 02:03:52;;;;;;;3.33;2.07;;;;;;;2.05;71.76;100946.50;5029306;28;20025;-81
2023/03/12 02:06:22;;;;;;;5.83;2.23;;;;;;;2.04;70.99;100939.63;5033120;28;20431;-81
2023/03/12 02:08:49;;;;;;;4.33;2.30;;;;;;;2.06;71.49;100950.75;5032574;28;20021;-81
2023/03/12 02:11:14;;;;;;;4.27;2.20;;;;;;;2.04;71.21;100948.19;5014680;28;20028;-81
2023/03/12 02:13:40;;;;;;;3.90;2.33;;;;;;;2.04;71.07;100945.63;5033525;28;20109;-81
2023/03/12 02:16:06;;;;;;;6.07;2.20;;;;;;;2.03;70.18;100941.34;5033393;28;20384;-81
2023/03/12 02:18:33;;;;;;;4.10;2.30;;;;;;;2.02;69.61;100946.47;5032354;28;20021;-81
2023/03/12 02:21:26;;;;;;;5.27;2.00;;;;;;;2.02;70.48;100943.91;5031662;28;20053;-80
2023/03/12 02:24:13;;;;;;;5.57;2.20;;;;;;;2.02;70.47;100943.91;5033196;28;20053;-81
2023/03/12 02:26:40;;;;;;;4.50;2.07;;;;;;;2.02;70.34;100943.91;5033367;28;20048;-81
2023/03/12 02:29:07;;;;;;;4.17;2.17;;;;;;;2.00;69.48;100931.03;5032065;28;20389;-81
2023/03/12 02:31:39;;;;;;;4.37;2.10;;;;;;;2.02;70.17;100929.34;5033078;28;20022;-81
2023/03/12 02:34:04;;;;;;;5.13;2.27;;;;;;;2.04;71.04;100919.13;5032110;28;20052;-81
2023/03/12 02:36:30;;;;;;;4.40;2.40;;;;;;;2.05;71.28;100915.72;5033243;28;20052;-81
2023/03/12 02:38:55;;;;;;;4.43;2.27;;;;;;;2.05;70.94;100918.28;5030532;28;20025;-81
2023/03/12 02:41:47;;;;;;;4.27;2.30;;;;;;;2.05;70.73;100913.13;5030681;28;20038;-81
2023/03/12 02:44:18;;;;;;;4.40;2.13;;;;;;;2.06;70.69;100910.56;5031644;28;20021;-81
2023/03/12 02:46:47;;;;;;;5.15;2.20;;;;;;;2.06;71.15;100912.25;5032569;28;20017;-81
2023/03/12 02:49:13;;;;;;;4.73;2.20;;;;;;;2.06;70.68;100907.13;5030212;28;20477;-81
2023/03/12 02:51:39;;;;;;;3.83;2.13;;;;;;;2.08;71.74;100908.88;5032258;28;20025;-81
2023/03/12 02:54:05;;;;;;;3.73;2.00;;;;;;;2.09;72.03;100917.44;5032751;28;20029;-81
2023/03/12 02:56:31;;;;;;;5.27;2.37;;;;;;;2.09;70.94;100914.88;5030920;28;20021;-81
2023/03/12 02:58:57;;;;;;;5.83;2.60;;;;;;;2.08;70.88;100913.16;5029649;28;20032;-81
2023/03/12 03:01:23;;;;;;;3.77;2.23;;;;;;;2.09;70.22;100920.00;5030505;28;20353;-80
2023/03/12 03:03:48;;;;;;;6.17;2.40;;;;;;;2.06;70.56;100904.56;5029266;28;20037;-81
2023/03/12 03:06:15;;;;;;;5.63;2.40;;;;;;;2.09;71.23;100904.59;5030614;28;20080;-81
2023/03/12 03:08:40;;;;;;;4.40;2.40;;;;;;;2.08;71.21;100895.19;5030951;28;20028;-81
2023/03/12 03:11:06;;;;;;;5.33;2.63;;;;;;;2.08;70.73;100892.63;5030817;28;20025;-81
2023/03/12 03:13:32;;;;;;;4.83;2.30;;;;;;;2.08;71.52;100895.19;5030694;28;20030;-81
2023/03/12 03:15:58;;;;;;;5.07;2.13;;;;;;;2.09;71.50;100889.22;5031226;28;20029;-81
2023/03/12 03:18:24;;;;;;;5.17;2.50;;;;;;;2.10;71.67;100888.34;5030762;28;20108;-81
2023/03/12 03:21:02;;;;;;;4.47;2.43;;;;;;;2.10;71.66;100891.81;5031076;28;20057;-81
2023/03/12 03:23:28;;;;;;;5.33;2.50;;;;;;;2.09;70.64;100897.78;5033641;28;20480;-81
2023/03/12 03:25:54;;;;;;;4.30;2.33;;;;;;;2.08;70.29;100900.31;5027934;28;20032;-81
2023/03/12 03:28:20;;;;;;;6.90;2.33;;;;;;;2.08;70.92;100898.63;5030807;28;20365;-81
2023/03/12 03:30:45;;;;;;;4.93;2.30;;;;;;;2.09;70.50;100904.59;5030367;28;20025;-81
2023/03/12 03:33:11;;;;;;;4.70;2.23;;;;;;;2.09;70.85;100899.47;5030943;28;20025;-81
2023/03/12 03:35:36;;;;;;;4.43;2.33;;;;;;;2.09;70.51;100902.03;5031057;28;20511;-81
2023/03/12 03:38:03;;;;;;;5.27;2.73;;;;;;;2.08;70.99;100895.19;5030926;28;20515;-81
2023/03/12 03:40:28;;;;;;;6.37;3.00;;;;;;;2.07;71.23;100896.03;5029913;28;20385;-81
2023/03/12 03:42:54;;;;;;;6.37;2.70;;;;;;;2.07;71.14;100901.16;5031956;28;20018;-81
2023/03/12 03:45:19;;;;;;;8.93;3.30;;;;;;;2.07;71.17;100898.59;5030037;28;20021;-81
2023/03/12 03:47:44;;;;;;;5.20;2.90;;;;;;;2.08;71.37;100895.19;5031311;28;20026;-81
2023/03/12 03:50:10;;;;;;;7.23;3.10;;;;;;;2.09;70.80;100894.34;5030158;28;20541;-81
2023/03/12 03:52:35;;;;;;;6.17;3.13;;;;;;;2.11;70.96;100895.22;5031107;28;20036;-81
2023/03/12 03:55:01;;;;;;;5.50;3.47;;;;;;;2.13;71.10;100885.84;5030189;28;20025;-81
2023/03/12 03:57:27;;;;;;;5.93;3.20;;;;;;;2.15;71.47;100886.72;5031254;28;20026;-81
2023/03/12 03:59:53;;;;;;;5.80;3.10;;;;;;;2.15;71.65;100873.88;5028178;28;20099;-81
2023/03/12 04:02:19;;;;;;;7.30;3.60;;;;;;;2.14;71.65;100867.03;5028764;28;20079;-81
2023/03/12 04:04:44;;;;;;;6.10;3.40;;;;;;;2.12;72.57;100861.00;5012492;28;20051;-81
2023/03/12 04:07:09;;;;;;;6.67;3.33;;;;;;;2.10;72.30;100863.56;5028868;28;20400;-81
2023/03/12 04:09:35;;;;;;;7.63;3.50;;;;;;;2.09;72.89;100850.72;5031168;28;20087;-81
2023/03/12 04:12:00;;;;;;;7.03;3.30;;;;;;;2.06;73.41;100849.00;5029466;28;20538;-81
2023/03/12 04:14:26;;;;;;;5.60;2.80;;;;;;;2.07;73.59;100860.97;5031712;28;20468;-81
2023/03/12 04:16:51;;;;;;;6.03;2.90;;;;;;;2.06;73.98;100853.25;5028353;28;20024;-81
2023/03/12 04:19:16;;;;;;;5.80;2.70;;;;;;;2.06;74.09;100843.84;5030468;28;20064;-81
2023/03/12 04:21:41;;;;;;;6.63;3.00;;;;;;;2.08;74.30;100843.84;5029384;28;20033;-81
2023/03/12 04:24:13;;;;;;;6.37;2.90;;;;;;;2.07;74.72;100825.06;5030257;28;20033;-81
2023/03/12 04:26:38;;;;;;;4.40;2.67;;;;;;;2.06;74.51;100820.75;5028592;28;20036;-81
2023/03/12 04:29:04;;;;;;;5.43;2.70;;;;;;;2.07;74.70;100819.03;5029957;28;20025;-81
2023/03/12 04:31:29;;;;;;;6.27;2.80;;;;;;;2.07;75.04;100811.34;5027538;28;20033;-80
2023/03/12 04:33:55;;;;;;;5.37;2.53;;;;;;;2.10;75.47;100808.81;5034977;28;20037;-81
2023/03/12 04:36:20;;;;;;;5.97;2.63;;;;;;;2.11;75.28;100802.81;5033679;28;20029;-81
2023/03/12 04:38:45;;;;;;;5.43;2.80;;;;;;;2.13;75.69;100798.56;5035160;28;20032;-81
2023/03/12 04:41:13;;;;;;;5.67;2.43;;;;;;;2.16;75.66;100793.47;5034564;28;20037;-81
2023/03/12 04:43:38;;;;;;;6.37;2.40;;;;;;;2.17;75.72;100781.47;5032857;28;20030;-81
2023/03/12 04:46:05;;;;;;;4.40;2.20;;;;;;;2.18;75.59;100776.38;5034487;28;20143;-81
2023/03/12 04:48:30;;;;;;;4.27;2.60;;;;;;;2.18;75.49;100778.94;5033982;28;20041;-81
2023/03/12 04:50:56;;;;;;;5.63;2.70;;;;;;;2.19;75.28;100778.09;5034491;28;20036;-81
2023/03/12 04:53:22;;;;;;;5.67;2.83;;;;;;;2.20;75.74;100772.13;5035383;28;20033;-81
2023/03/12 04:55:47;;;;;;;4.63;2.50;;;;;;;2.21;75.57;100776.41;5032768;28;20051;-81
2023/03/12 04:58:13;;;;;;;6.13;2.70;;;;;;;2.20;75.49;100790.09;5034724;28;20025;-81
2023/03/12 05:00:40;;;;;;;4.90;2.33;;;;;;;2.23;75.97;100778.97;5034803;28;20475;-81
2023/03/12 05:03:06;;;;;;;5.33;2.40;;;;;;;2.25;75.98;100760.16;5032534;28;20484;-81
2023/03/12 05:05:32;;;;;;;3.90;2.07;;;;;;;2.25;75.44;100765.28;5033978;28;20096;-81
2023/03/12 05:07:58;;;;;;;5.30;2.40;;;;;;;2.25;76.19;100773.00;5032129;28;20514;-81
2023/03/12 05:10:23;;;;;;;4.93;2.30;;;;;;;2.26;76.18;100767.00;5033371;28;20033;-81
2023/03/12 05:12:48;;;;;;;5.80;2.50;;;;;;;2.27;75.70;100768.72;5033740;28;20399;-81
2023/03/12 05:15:16;;;;;;;5.83;2.47;;;;;;;2.28;75.57;100767.88;5030189;28;20029;-81
2023/03/12 05:17:42;;;;;;;4.93;2.60;;;;;;;2.30;74.97;100760.22;5016748;28;20032;-81
2023/03/12 05:20:08;;;;;;;4.63;2.40;;;;;;;2.31;75.39;100755.94;5034464;28;20653;-81
2023/03/12 05:22:34;;;;;;;5.30;2.43;;;;;;;2.30;75.36;100743.94;5033735;28;20144;-81
2023/03/12 05:25:00;;;;;;;8.50;2.90;;;;;;;2.30;75.36;100734.53;5030587;28;20100;-81
2023/03/12 05:27:25;;;;;;;7.03;2.40;;;;;;;2.29;75.26;100735.41;5016521;28;20037;-81
2023/03/12 05:29:51;;;;;;;4.40;2.20;;;;;;;2.30;75.59;100736.25;5033454;28;20021;-81
2023/03/12 05:32:17;;;;;;;3.83;2.30;;;;;;;2.28;75.67;100731.94;5033071;28;20021;-81
2023/03/12 05:34:42;;;;;;;3.60;2.40;;;;;;;2.32;75.25;100742.25;5030788;28;20032;-81
2023/03/12 05:37:07;;;;;;;6.57;2.47;;;;;;;2.32;75.62;100734.53;5032910;28;20033;-81
2023/03/12 05:39:33;;;;;;;5.57;2.40;;;;;;;2.32;75.67;100734.53;5031501;28;20099;-81
2023/03/12 05:41:59;;;;;;;5.43;2.70;;;;;;;2.31;76.04;100731.09;5033288;28;20027;-81
2023/03/12 05:44:25;;;;;;;4.90;2.70;;;;;;;2.32;76.20;100729.41;5033532;28;20028;-81
2023/03/12 05:46:51;;;;;;;5.30;2.50;;;;;;;2.33;76.47;100724.28;5032908;28;20049;-81
2023/03/12 05:49:17;;;;;;;6.77;2.90;;;;;;;2.33;76.57;100726.84;5033282;28;20060;-81
2023/03/12 05:51:42;;;;;;;7.93;2.90;;;;;;;2.33;77.20;100728.56;5032936;28;20029;-81
2023/03/12 05:54:08;;;;;;;9.40;2.80;;;;;;;2.33;77.68;100734.53;5031291;28;20116;-81
2023/03/12 05:56:35;;;;;;;5.73;2.77;;;;;;;2.37;77.10;100732.88;5031209;28;20088;-81
2023/03/12 05:59:01;;;;;;;7.07;2.67;;;;;;;2.37;77.56;100727.75;5031756;28;20025;-81
2023/03/12 06:01:27;;;;;;;6.20;2.53;;;;;;;2.34;77.71;100730.28;5029370;28;20388;-81
2023/03/12 06:03:53;;;;;;;7.60;2.90;;;;;;;2.33;77.59;100728.56;5032419;28;20026;-81
2023/03/12 06:06:19;;;;;;;6.53;2.67;;;;;;;2.33;77.70;100731.97;5033669;28;20032;-81
2023/03/12 06:08:44;;;;;;;7.60;3.13;;;;;;;2.33;78.53;100728.56;5032043;28;20026;-81
2023/03/12 06:11:10;;;;;;;15.30;3.90;;;;;;;2.34;78.53;100722.59;5031615;28;20035;-80
2023/03/12 06:13:35;;;;;;;10.07;3.50;;;;;;;2.34;78.82;100725.16;5032551;28;20365;-82
2023/03/12 06:16:03;;;;;;;6.40;3.20;;;;;;;2.36;78.92;100728.59;5033550;28;20025;-81
2023/03/12 06:18:29;;;;;;;11.83;3.33;;;;;;;2.34;79.42;100730.28;5032076;28;20071;-81
2023/03/12 06:20:54;;;;;;;8.10;3.17;;;;;;;2.34;79.47;100725.16;5030673;28;20124;-81
2023/03/12 06:23:20;;;;;;;5.93;3.13;;;;;;;2.35;79.64;100726.88;5031088;28;20116;-82
2023/03/12 06:25:45;;;;;;;6.93;3.10;;;;;;;2.36;79.51;100723.44;5029931;28;20480;-81
2023/03/12 06:28:10;;;;;;;6.43;3.00;;;;;;;2.35;80.35;100726.88;5030880;28;20064;-81
2023/03/12 06:30:35;;;;;;;6.23;3.07;;;;;;;2.36;79.89;100733.72;5031833;28;20505;-81
2023/03/12 06:33:02;;;;;;;5.10;2.83;;;;;;;2.34;80.75;100733.69;5032843;28;20031;-81
2023/03/12 06:35:28;;;;;;;9.57;3.10;;;;;;;2.37;80.39;100732.88;5028449;28;20420;-81
2023/03/12 06:37:53;;;;;;;5.33;2.97;;;;;;;2.38;81.05;100724.31;5030391;28;20524;-81
2023/03/12 06:40:18;;;;;;;4.97;3.10;;;;;;;2.36;81.32;100728.59;5032637;28;20507;-81
2023/03/12 06:42:44;;;;;;;6.87;3.07;;;;;;;2.36;82.07;100723.44;5016528;28;20087;-81
2023/03/12 06:45:09;;;;;;;5.83;3.10;;;;;;;2.38;82.23;100720.03;5028833;28;20025;-81
2023/03/12 06:47:35;;;;;;;5.63;2.80;;;;;;;2.40;82.12;100720.91;5031473;28;20060;-81
2023/03/12 06:50:00;;;;;;;8.60;2.63;;;;;;;2.40;82.60;100704.63;5031061;28;20037;-81
2023/03/12 06:52:25;;;;;;;6.20;3.17;;;;;;;2.42;83.14;100708.06;5032266;28;20480;-81
2023/03/12 06:54:51;;;;;;;7.33;3.23;;;;;;;2.43;83.36;100704.66;5030742;28;20021;-82
2023/03/12 06:57:16;;;;;;;5.33;3.20;;;;;;;2.42;83.65;100706.38;5029417;28;20469;-82
2023/03/12 06:59:42;;;;;;;6.47;3.27;;;;;;;2.40;84.57;100702.94;5029959;28;20037;-81
2023/03/12 07:02:10;;;;;;;5.03;3.10;;;;;;;2.40;85.37;100699.50;5028000;28;20032;-81
2023/03/12 07:04:35;;;;;;;6.73;3.10;;;;;;;2.40;86.08;100699.50;5029117;28;20108;-81
2023/03/12 07:07:00;;;;;;;6.00;3.07;;;;;;;2.42;86.18;100687.53;5030706;28;20168;-81
2023/03/12 07:09:26;;;;;;;5.20;2.87;;;;;;;2.45;85.77;100690.13;5030300;28;20063;-81
2023/03/12 07:11:51;;;;;;;5.60;3.17;;;;;;;2.45;85.08;100682.41;5030756;28;20032;-81
2023/03/12 07:14:18;;;;;;;5.17;2.93;;;;;;;2.47;86.01;100685.00;5032429;28;20668;-81
2023/03/12 07:16:43;;;;;;;7.80;3.40;;;;;;;2.48;86.36;100691.81;5014853;28;20543;-81
2023/03/12 07:19:08;;;;;;;6.33;2.93;;;;;;;2.49;86.81;100691.84;5028745;28;20105;-81
2023/03/12 07:21:34;;;;;;;5.90;3.10;;;;;;;2.51;87.63;100691.84;5030886;28;20052;-81
2023/03/12 07:23:59;;;;;;;5.50;3.07;;;;;;;2.51;86.03;100690.16;5030640;28;20465;-81
2023/03/12 07:26:25;;;;;;;6.57;3.30;;;;;;;2.53;86.78;100688.47;5013555;28;20607;-82
2023/03/12 07:28:50;;;;;;;6.40;3.50;;;;;;;2.56;87.01;100680.75;5028471;28;20021;-81
2023/03/12 07:31:16;;;;;;;5.37;2.90;;;;;;;2.53;88.05;100669.59;5031592;28;20079;-81
2023/03/12 07:33:41;;;;;;;6.50;3.17;;;;;;;2.56;87.49;100680.75;5031679;28;20026;-81
2023/03/12 07:36:07;;;;;;;6.47;3.10;;;;;;;2.58;87.21;100688.47;5028466;28;20021;-81
2023/03/12 07:38:32;;;;;;;6.70;2.97;;;;;;;2.61;87.19;100687.63;5030213;28;20033;-81
2023/03/12 07:40:59;;;;;;;7.67;3.40;;;;;;;2.60;87.99;100685.91;5031596;28;20029;-81
2023/03/12 07:43:24;;;;;;;5.97;3.23;;;;;;;2.61;87.51;100690.19;5014646;28;20037;-81
2023/03/12 07:45:50;;;;;;;6.17;3.23;;;;;;;2.62;86.49;100697.03;5030037;28;20048;-82
2023/03/12 07:48:16;;;;;;;6.90;3.53;;;;;;;2.63;88.08;100691.06;5030826;28;20013;-81
2023/03/12 07:50:41;;;;;;;7.53;3.60;;;;;;;2.65;87.66;100686.78;5030599;28;20025;-82
2023/03/12 07:53:06;;;;;;;7.07;3.80;;;;;;;2.64;86.81;100683.38;5030431;28;20400;-82
2023/03/12 07:55:33;;;;;;;4.87;3.27;;;;;;;2.65;87.99;100682.50;5030607;28;20025;-82
2023/03/12 07:57:59;;;;;;;7.37;3.67;;;;;;;2.66;88.27;100693.63;5029234;28;20056;-81
2023/03/12 08:00:25;;;;;;;7.73;3.87;;;;;;;2.67;88.64;100692.78;5031154;28;20530;-82
2023/03/12 08:02:51;;;;;;;8.20;3.93;;;;;;;2.70;88.84;100695.38;5013620;28;20029;-82
2023/03/12 08:05:16;;;;;;;6.47;3.60;;;;;;;2.72;89.30;100698.81;5030205;28;20021;-82
2023/03/12 08:07:42;;;;;;;5.40;3.40;;;;;;;2.72;89.28;100691.13;5025704;28;20026;-82
2023/03/12 08:10:08;;;;;;;5.70;3.80;;;;;;;2.76;89.62;100695.38;5031221;28;20094;-81
2023/03/12 08:12:34;;;;;;;4.97;3.57;;;;;;;2.77;89.46;100693.69;5029734;28;20037;-82
2023/03/12 08:14:59;;;;;;;5.93;3.73;;;;;;;2.79;89.78;100697.97;5029169;28;20033;-82
2023/03/12 08:17:25;;;;;;;7.03;3.90;;;;;;;2.81;90.31;100695.44;5028835;28;20036;-82
2023/03/12 08:19:50;;;;;;;6.57;3.80;;;;;;;2.83;90.53;100688.56;5027581;28;20046;-82
2023/03/12 08:22:16;;;;;;;5.60;3.67;;;;;;;2.86;90.28;100689.44;5025672;28;20033;-82
2023/03/12 08:24:41;;;;;;;7.53;3.80;;;;;;;2.92;90.28;100687.72;5029455;28;20507;-82
2023/03/12 08:27:07;;;;;;;5.67;3.90;;;;;;;2.96;90.84;100686.91;5030290;28;20469;-82
2023/03/12 08:29:32;;;;;;;5.27;3.30;;;;;;;3.00;91.17;100692.03;5028246;28;20393;-82
2023/03/12 08:31:58;;;;;;;5.47;3.33;;;;;;;3.03;91.10;100691.22;5029879;28;20033;-82
2023/03/12 08:34:23;;;;;;;5.77;3.77;;;;;;;3.09;91.10;100693.78;5025521;28;20029;-82
2023/03/12 08:36:48;;;;;;;6.63;3.70;;;;;;;3.13;91.08;100682.66;5030813;28;20033;-82
2023/03/12 08:39:13;;;;;;;7.00;3.93;;;;;;;3.18;90.83;100696.41;5027673;28;20392;-81
2023/03/12 08:41:39;;;;;;;6.93;4.30;;;;;;;3.22;90.91;100691.25;5025866;28;20022;-81
2023/03/12 08:44:04;;;;;;;7.43;4.30;;;;;;;3.26;91.08;100698.09;5009691;28;20400;-82
2023/03/12 08:46:29;;;;;;;7.00;4.30;;;;;;;3.29;91.48;100701.56;5028083;28;20087;-82
2023/03/12 08:48:54;;;;;;;6.77;4.47;;;;;;;3.32;91.45;100699.00;5025665;28;20488;-82
2023/03/12 08:51:20;;;;;;;7.50;4.47;;;;;;;3.36;91.00;100694.72;5025445;28;20464;-82
2023/03/12 08:53:45;;;;;;;5.93;3.97;;;;;;;3.40;91.69;100706.72;5023283;28;20036;-82
2023/03/12 08:56:11;;;;;;;6.60;4.53;;;;;;;3.40;91.65;100700.72;5028613;28;20496;-82
2023/03/12 08:58:36;;;;;;;7.47;4.63;;;;;;;3.46;92.04;100704.16;5027165;28;20030;-82
2023/03/12 09:01:06;;;;;;;7.90;4.83;;;;;;;3.49;92.30;100711.88;5029923;28;20224;-82
2023/03/12 09:03:32;;;;;;;7.53;4.43;;;;;;;3.54;92.35;100713.59;5029114;28;20033;-82
2023/03/12 09:06:15;;;;;;;7.10;4.33;;;;;;;3.59;92.33;100719.59;5027898;28;20053;-82
2023/03/12 09:08:42;;;;;;;7.87;4.50;;;;;;;3.65;92.44;100722.19;5030292;28;20040;-82
2023/03/12 09:11:09;;;;;;;7.90;4.83;;;;;;;3.70;92.52;100715.31;5010786;28;20381;-82
2023/03/12 09:13:34;;;;;;;6.67;4.80;;;;;;;3.73;92.28;100720.47;5030803;28;20037;-82
2023/03/12 09:16:01;;;;;;;7.60;5.00;;;;;;;3.77;92.52;100717.03;5028343;28;20406;-82
2023/03/12 09:18:28;;;;;;;8.27;5.50;;;;;;;3.83;93.01;100716.19;5031503;28;20112;-82
2023/03/12 09:20:53;;;;;;;8.97;5.20;;;;;;;3.88;93.27;100709.31;5032621;28;20041;-82
2023/03/12 09:23:18;;;;;;;8.43;5.37;;;;;;;3.96;93.46;100706.75;5030479;28;20040;-82
2023/03/12 09:25:45;;;;;;;8.87;5.60;;;;;;;4.04;93.04;100710.19;5030388;28;20609;-82
2023/03/12 09:28:10;;;;;;;9.80;5.80;;;;;;;4.12;93.84;100701.56;5030226;28;20079;-82
2023/03/12 09:30:36;;;;;;;11.03;5.63;;;;;;;4.20;94.51;100700.69;5034645;28;20037;-82
2023/03/12 09:33:02;;;;;;;11.07;6.40;;;;;;;4.29;94.23;100701.56;5031753;28;20040;-82
2023/03/12 09:35:27;;;;;;;9.73;6.17;;;;;;;4.35;94.24;100702.41;5030416;28;20075;-82
2023/03/12 09:37:52;;;;;;;10.60;6.03;;;;;;;4.47;94.97;100703.22;5032867;28;20030;-82
2023/03/12 09:40:22;;;;;;;12.00;6.80;;;;;;;4.57;95.08;100702.34;5013687;28;20041;-82
2023/03/12 09:43:15;;;;;;;11.07;6.30;;;;;;;4.66;95.04;100704.03;5030213;28;20028;-82
2023/03/12 09:45:46;;;;;;;11.02;6.55;;;;;;;4.75;94.51;100714.28;5025482;28;20064;-84
2023/03/12 09:48:16;;;;;;;12.90;7.15;;;;;;;4.82;94.97;100704.81;5033007;28;20026;-82
2023/03/12 09:50:48;;;;;;;14.93;7.80;;;;;;;4.92;95.27;100711.66;5035359;28;20029;-82
2023/03/12 09:53:26;;;;;;;16.88;8.25;;;;;;;5.03;95.58;100716.78;5035635;28;20033;-82
2023/03/12 09:55:55;;;;;;;16.65;9.48;;;;;;;5.15;95.62;100713.25;5032254;28;20029;-83
2023/03/12 09:58:26;;;;;;;14.57;8.18;;;;;;;5.28;95.83;100722.66;5032881;28;20120;-83
2023/03/12 10:01:00;;;;;;;14.55;9.00;;;;;;;5.41;95.78;100722.56;5030091;28;20037;-82
2023/03/12 10:03:38;;;;;;;15.88;9.38;;;;;;;5.53;95.80;100724.22;5033024;28;20170;-82
2023/03/12 10:06:18;;;;;;;13.73;9.07;;;;;;;5.63;96.30;100731.03;5036646;28;20209;-83
2023/03/12 10:09:05;;;;;;;16.92;9.60;;;;;;;5.72;96.46;100730.09;5028113;28;20035;-83
2023/03/12 10:11:54;;;;;;;14.90;9.10;;;;;;;5.83;96.86;100733.44;5034445;28;20286;-83
2023/03/12 10:14:38;;;;;;;16.63;10.40;;;;;;;5.96;96.31;100721.28;5035638;28;20047;-83
2023/03/12 10:17:12;;;;;;;15.52;9.98;;;;;;;6.04;96.37;100744.50;5034038;28;20501;-82
2023/03/12 10:19:56;;;;;;;16.77;10.32;;;;;;;6.11;96.24;100733.25;5032724;28;20051;-83
2023/03/12 10:22:31;;;;;;;15.50;10.20;;;;;;;6.17;96.65;100728.03;5034449;28;20498;-83
2023/03/12 10:25:06;;;;;;;17.45;10.70;;;;;;;6.24;96.84;100723.66;5032759;28;20179;-83
2023/03/12 10:27:35;;;;;;;16.98;10.48;;;;;;;6.33;96.86;100727.88;5032457;28;20033;-84
2023/03/12 10:30:11;;;;;;;18.35;10.27;;;;;;;6.41;97.36;100725.22;5017769;28;20021;-83
2023/03/12 10:32:45;;;;;;;14.82;9.75;;;;;;;6.46;96.41;100719.16;5028227;28;20038;-80
2023/03/12 10:35:19;;;;;;;16.77;10.38;;;;;;;6.53;97.06;100713.03;5038886;28;20029;-80
2023/03/12 10:37:52;;;;;;;16.75;9.88;;;;;;;6.61;97.28;100718.09;5038644;28;20460;-82
2023/03/12 10:40:25;;;;;;;17.20;9.98;;;;;;;6.70;97.11;100718.88;5029304;28;20032;-82
2023/03/12 10:42:51;;;;;;;17.38;10.82;;;;;;;6.79;97.36;100727.38;5031520;28;20112;-82
2023/03/12 10:45:44;;;;;;;18.08;10.70;;;;;;;6.91;97.78;100726.38;5037064;28;20162;-82
2023/03/12 10:48:17;;;;;;;18.38;10.52;;;;;;;7.02;97.06;100728.81;5031925;28;20068;-82
2023/03/12 10:50:42;;;;;;;18.50;10.43;;;;;;;7.09;97.42;100714.94;5032214;28;20399;-82
2023/03/12 10:53:29;;;;;;;16.63;10.38;;;;;;;7.16;96.60;100715.72;5030269;28;20093;-81
2023/03/12 10:56:08;;;;;;;21.75;11.00;;;;;;;7.26;96.96;100716.44;5018957;28;20040;-82
2023/03/12 10:58:50;;;;;;;19.75;10.48;;;;;;;7.32;96.81;100711.19;5029246;28;20029;-83
2023/03/12 11:01:26;;;;;;;20.00;10.43;;;;;;;7.39;96.90;100712.78;5031208;28;20072;-82
2023/03/12 11:04:08;;;;;;;21.25;10.80;;;;;;;7.43;97.11;100714.47;5032675;28;20032;-83
2023/03/12 11:06:33;;;;;;;21.77;11.32;;;;;;;7.46;96.72;100708.38;5038761;28;20033;-82
2023/03/12 11:09:06;;;;;;;19.80;11.00;;;;;;;7.51;97.01;100718.69;5031860;28;20029;-83
2023/03/12 11:11:33;;;;;;;18.50;10.15;;;;;;;7.54;97.90;100719.47;5028415;28;20044;-83
2023/03/12 11:14:22;;;;;;;19.67;10.35;;;;;;;7.56;97.59;100724.63;5029128;28;20033;-84
2023/03/12 11:16:48;;;;;;;20.05;10.07;;;;;;;7.62;96.93;100731.44;5031345;28;20098;-82
2023/03/12 11:19:29;;;;;;;21.33;11.07;;;;;;;7.66;97.64;100736.56;5029008;28;20021;-81
2023/03/12 11:22:01;;;;;;;24.45;10.43;;;;;;;7.68;97.81;100729.63;5033461;28;20039;-83
2023/03/12 11:24:26;;;;;;;18.02;9.70;;;;;;;7.71;97.96;100729.56;5027742;28;20040;-82
2023/03/12 11:27:30;;;;;;;20.92;10.57;;;;;;;7.70;97.08;100729.59;5025541;28;20029;-83
2023/03/12 11:29:55;;;;;;;20.05;10.20;;;;;;;7.73;98.25;100733.00;4937745;28;20102;-83
2023/03/12 11:32:37;;;;;;;20.05;9.88;;;;;;;7.78;97.89;100729.47;5011273;28;20071;-83
2023/03/12 11:35:08;;;;;;;23.13;10.57;;;;;;;7.80;98.31;100736.34;5022447;28;20090;-84